Time;durP1;ratioP1;P1;durP2;ratioP2;P2;SDS_P1;SDS_P2;PMS_P1;PMS_P2;Temp;Humidity;BMP_temperature;BMP_pressure;BME280_temperature;BME280_humidity;BME280_pressure;Samples;Min_cycle;Max_cycle;Signal;HPM_P1;HPM_P2
2022/11/01 00:00:05;;;;;;;54.22;39.85;;;;;;;12.10;100.00;99795.22;4955640;28;20038;-89
2022/11/01 00:02:30;;;;;;;51.30;34.42;;;;;;;12.11;100.00;99775.16;4987501;28;20039;-89
2022/11/01 00:04:55;;;;;;;49.90;36.00;;;;;;;12.20;100.00;99790.38;4955543;28;20378;-88
2022/11/01 00:07:21;;;;;;;48.55;33.85;;;;;;;12.19;100.00;99773.00;4987783;28;20023;-88
2022/11/01 00:09:46;;;;;;;53.25;35.25;;;;;;;12.30;100.00;99775.06;4971572;28;20049;-89
2022/11/01 00:12:12;;;;;;;50.05;35.38;;;;;;;12.31;100.00;99763.72;4955380;28;20037;-90
2022/11/01 00:14:38;;;;;;;47.60;33.70;;;;;;;12.40;100.00;99764.06;4990186;28;20027;-87
2022/11/01 00:17:03;;;;;;;45.67;32.40;;;;;;;12.43;100.00;99768.28;4976638;28;20594;-89
2022/11/01 00:19:29;;;;;;;45.35;30.83;;;;;;;12.46;100.00;99753.28;4991677;28;20031;-89
2022/11/01 00:21:54;;;;;;;42.70;31.35;;;;;;;12.50;100.00;99764.41;4991609;28;20058;-90
2022/11/01 00:24:19;;;;;;;50.20;34.95;;;;;;;12.51;100.00;99749.59;4959090;28;20061;-88
2022/11/01 00:26:45;;;;;;;51.75;31.90;;;;;;;12.54;100.00;99758.09;4976594;28;20098;-89
2022/11/01 00:29:11;;;;;;;42.90;32.65;;;;;;;12.61;100.00;99743.81;4991420;28;20033;-89
2022/11/01 00:31:36;;;;;;;43.45;31.55;;;;;;;12.60;100.00;99742.13;4991166;28;20045;-89
2022/11/01 00:34:04;;;;;;;44.53;30.42;;;;;;;12.60;100.00;99755.19;4991512;28;20517;-89
2022/11/01 00:36:31;;;;;;;41.50;28.70;;;;;;;12.57;100.00;99739.66;4991190;28;20090;-88
2022/11/01 00:38:56;;;;;;;39.80;30.02;;;;;;;12.58;100.00;99740.50;4976490;28;20030;-88
2022/11/01 00:41:22;;;;;;;33.65;26.65;;;;;;;12.56;100.00;99738.00;4958713;28;20025;-88
2022/11/01 00:43:47;;;;;;;37.78;28.42;;;;;;;12.43;100.00;99724.72;4958925;28;20023;-86
2022/11/01 00:46:13;;;;;;;37.85;28.63;;;;;;;12.50;100.00;99735.69;4973533;28;20063;-87
2022/11/01 00:48:39;;;;;;;40.30;28.42;;;;;;;12.47;100.00;99730.59;4957541;28;20114;-88
2022/11/01 00:51:04;;;;;;;50.70;28.45;;;;;;;12.45;100.00;99735.09;4957582;28;20442;-88
2022/11/01 00:53:30;;;;;;;43.72;30.73;;;;;;;12.46;100.00;99731.53;4973756;28;20027;-88
2022/11/01 00:56:05;;;;;;;38.20;28.45;;;;;;;12.43;100.00;99729.09;4957601;28;20117;-88
2022/11/01 00:58:31;;;;;;;37.63;27.52;;;;;;;12.35;100.00;99726.91;4957159;28;20031;-87
2022/11/01 01:00:57;;;;;;;39.42;26.92;;;;;;;12.30;100.00;99710.59;4957224;28;20038;-88
2022/11/01 01:03:23;;;;;;;36.42;27.15;;;;;;;12.35;100.00;99724.28;4957113;28;20037;-88
2022/11/01 01:05:50;;;;;;;37.72;26.88;;;;;;;12.30;100.00;99715.00;4957084;28;20038;-88
2022/11/01 01:08:16;;;;;;;40.22;25.58;;;;;;;12.32;100.00;99715.78;4956783;28;20145;-88
2022/11/01 01:10:41;;;;;;;35.15;26.02;;;;;;;12.18;100.00;99699.06;4957189;28;20031;-88
2022/11/01 01:13:07;;;;;;;33.20;24.70;;;;;;;12.24;100.00;99713.56;4957180;28;20033;-88
2022/11/01 01:15:33;;;;;;;36.65;26.30;;;;;;;12.22;100.00;99712.81;4956918;28;20518;-88
2022/11/01 01:17:58;;;;;;;39.05;26.05;;;;;;;12.15;100.00;99690.53;4958002;28;20034;-86
2022/11/01 01:20:24;;;;;;;38.53;28.15;;;;;;;12.28;100.00;99712.47;4957982;28;20041;-87
2022/11/01 01:22:49;;;;;;;37.50;24.75;;;;;;;12.29;100.00;99713.31;4958386;28;20015;-87
2022/11/01 01:25:16;;;;;;;39.78;26.58;;;;;;;12.31;100.00;99707.09;4957482;28;20378;-87
2022/11/01 01:27:42;;;;;;;34.97;25.42;;;;;;;12.25;100.00;99699.56;4958219;28;20446;-87
2022/11/01 01:30:08;;;;;;;35.08;25.55;;;;;;;12.22;100.00;99695.38;4975396;28;20109;-87
2022/11/01 01:32:33;;;;;;;34.88;24.35;;;;;;;12.27;100.00;99696.91;4990256;28;20382;-87
2022/11/01 01:34:59;;;;;;;34.17;24.63;;;;;;;12.17;100.00;99684.28;4975484;28;20030;-87
2022/11/01 01:37:25;;;;;;;33.05;24.35;;;;;;;12.25;100.00;99683.91;4975396;28;20022;-87
2022/11/01 01:39:50;;;;;;;36.50;25.00;;;;;;;12.24;100.00;99685.66;4957875;28;20034;-88
2022/11/01 01:42:27;;;;;;;44.20;25.83;;;;;;;12.24;100.00;99692.66;4975198;28;20031;-87
2022/11/01 01:44:56;;;;;;;35.85;25.23;;;;;;;12.25;100.00;99686.50;4975468;28;20065;-87
2022/11/01 01:47:32;;;;;;;48.25;27.45;;;;;;;12.24;100.00;99682.22;4975006;28;20666;-88
2022/11/01 01:50:30;;;;;;;40.88;27.65;;;;;;;12.25;100.00;99683.91;4990058;28;20026;-88
2022/11/01 01:53:01;;;;;;;34.45;25.77;;;;;;;12.20;100.00;99686.75;4953310;29;20039;-88
2022/11/01 01:55:34;;;;;;;38.97;28.15;;;;;;;12.17;100.00;99678.25;4936910;29;20035;-87
2022/11/01 01:58:00;;;;;;;43.08;29.98;;;;;;;12.18;100.00;99670.34;4937138;29;20027;-88
2022/11/01 02:00:26;;;;;;;40.80;28.88;;;;;;;12.21;100.00;99666.72;4936816;29;20023;-88
2022/11/01 02:02:52;;;;;;;44.10;30.50;;;;;;;12.18;100.00;99672.13;4936983;29;20101;-88
2022/11/01 02:05:42;;;;;;;42.33;30.45;;;;;;;12.18;100.00;99672.13;4936895;29;20030;-88
2022/11/01 02:08:09;;;;;;;45.50;27.30;;;;;;;12.16;100.00;99671.34;4933579;29;20059;-88
2022/11/01 02:10:35;;;;;;;44.20;30.15;;;;;;;12.06;100.00;99663.16;4933685;29;20036;-88
2022/11/01 02:13:00;;;;;;;40.42;29.88;;;;;;;12.08;100.00;99666.50;4933758;29;20135;-87
2022/11/01 02:15:39;;;;;;;40.90;28.67;;;;;;;12.03;100.00;99658.09;4917552;29;20381;-88
2022/11/01 02:18:16;;;;;;;44.00;30.15;;;;;;;12.09;100.00;99664.75;4933935;29;20047;-87
2022/11/01 02:21:12;;;;;;;42.90;31.02;;;;;;;12.06;100.00;99655.31;4933211;29;20114;-87
2022/11/01 02:23:59;;;;;;;49.85;32.72;;;;;;;12.06;100.00;99650.09;4933378;29;20130;-88
2022/11/01 02:26:43;;;;;;;47.30;32.80;;;;;;;12.05;100.00;99640.59;4933185;29;20374;-87
2022/11/01 02:29:27;;;;;;;41.63;30.45;;;;;;;11.97;100.00;99632.31;4947797;29;20383;-88
2022/11/01 02:32:23;;;;;;;48.80;32.25;;;;;;;11.99;100.00;99644.34;4952753;29;20102;-88
2022/11/01 02:35:04;;;;;;;43.60;30.88;;;;;;;11.95;100.00;99632.38;4936565;29;20042;-87
2022/11/01 02:37:54;;;;;;;46.53;32.90;;;;;;;11.94;100.00;99637.69;4935314;29;20022;-87
2022/11/01 02:40:34;;;;;;;39.35;29.35;;;;;;;11.85;100.00;99615.53;4956690;28;20363;-88
2022/11/01 02:43:09;;;;;;;44.42;30.75;;;;;;;11.88;100.00;99624.94;4974235;28;20023;-87
2022/11/01 02:45:39;;;;;;;43.88;31.52;;;;;;;11.86;100.00;99627.66;4972531;28;20038;-88
2022/11/01 02:48:05;;;;;;;49.50;31.85;;;;;;;11.85;100.00;99623.34;4988984;28;20378;-87
2022/11/01 02:50:37;;;;;;;43.47;29.65;;;;;;;11.86;100.00;99621.59;4973770;28;20102;-86
2022/11/01 02:53:03;;;;;;;46.28;30.23;;;;;;;11.85;100.00;99619.91;4988777;28;20019;-86
2022/11/01 02:55:29;;;;;;;46.22;29.95;;;;;;;11.83;100.00;99617.34;4973540;28;20029;-87
2022/11/01 02:58:03;;;;;;;46.05;30.35;;;;;;;11.80;100.00;99612.28;4988851;28;20022;-86
2022/11/01 03:00:34;;;;;;;46.10;30.40;;;;;;;11.77;100.00;99611.59;4973691;28;20027;-86
2022/11/01 03:03:24;;;;;;;45.42;28.33;;;;;;;11.86;100.00;99621.59;4973833;28;20359;-86
2022/11/01 03:06:00;;;;;;;39.88;29.23;;;;;;;11.84;100.00;99610.38;4988493;28;20025;-86
2022/11/01 03:08:34;;;;;;;45.63;31.13;;;;;;;11.86;100.00;99611.16;4973315;28;20082;-86
2022/11/01 03:11:08;;;;;;;45.15;31.42;;;;;;;11.87;100.00;99610.22;4972472;28;20031;-86
2022/11/01 03:13:57;;;;;;;42.80;29.63;;;;;;;11.85;100.00;99607.69;4970727;28;20031;-86
2022/11/01 03:16:54;;;;;;;43.13;28.77;;;;;;;11.85;100.00;99610.31;4916603;29;20492;-87
2022/11/01 03:19:40;;;;;;;39.45;26.90;;;;;;;11.83;100.00;99606.91;4916699;29;20024;-87
2022/11/01 03:22:17;;;;;;;38.63;28.73;;;;;;;11.82;100.00;99620.03;4932429;29;20031;-86
2022/11/01 03:24:49;;;;;;;33.92;26.60;;;;;;;11.73;100.00;99609.13;4916431;29;20036;-86
2022/11/01 03:27:20;;;;;;;43.30;28.27;;;;;;;11.80;100.00;99627.94;4932676;29;20071;-87
2022/11/01 03:29:55;;;;;;;34.92;25.80;;;;;;;11.75;100.00;99622.09;4932522;29;20070;-89
2022/11/01 03:32:32;;;;;;;41.10;29.40;;;;;;;11.73;100.00;99627.41;4916629;29;20037;-89
2022/11/01 03:35:00;;;;;;;39.30;27.92;;;;;;;11.73;100.00;99629.19;4916512;29;20039;-87
2022/11/01 03:37:28;;;;;;;38.88;27.73;;;;;;;11.72;100.00;99630.94;4916322;29;20122;-86
2022/11/01 03:39:56;;;;;;;41.20;29.08;;;;;;;11.67;100.00;99627.75;4916402;29;20098;-86
2022/11/01 03:42:23;;;;;;;43.53;28.70;;;;;;;11.61;100.00;99621.97;4916498;29;20673;-86
2022/11/01 03:44:56;;;;;;;41.88;27.98;;;;;;;11.58;100.00;99614.31;4916137;29;20035;-86
2022/11/01 03:47:21;;;;;;;40.58;28.48;;;;;;;11.61;100.00;99640.25;4932513;29;20068;-86
2022/11/01 03:49:47;;;;;;;43.20;29.45;;;;;;;11.56;100.00;99629.19;4920994;29;20448;-87
2022/11/01 03:52:12;;;;;;;44.03;30.15;;;;;;;11.55;100.00;99635.34;4938744;29;20024;-89
2022/11/01 03:54:38;;;;;;;49.92;33.67;;;;;;;11.49;100.00;99628.66;4961559;28;20031;-88
2022/11/01 03:57:03;;;;;;;39.78;29.83;;;;;;;11.46;100.00;99619.25;4994656;28;20023;-88
2022/11/01 03:59:29;;;;;;;45.88;31.20;;;;;;;11.41;100.00;99617.75;4979541;28;20042;-87
2022/11/01 04:01:54;;;;;;;49.15;31.83;;;;;;;11.39;100.00;99622.22;4994386;28;20022;-87
2022/11/01 04:04:19;;;;;;;49.58;32.78;;;;;;;11.37;100.00;99614.47;4978045;28;20494;-87
2022/11/01 04:06:45;;;;;;;46.85;32.10;;;;;;;11.36;100.00;99614.56;4979416;28;20062;-87
2022/11/01 04:09:10;;;;;;;42.42;32.80;;;;;;;11.35;100.00;99618.09;4961888;28;20066;-87
2022/11/01 04:11:36;;;;;;;48.67;34.78;;;;;;;11.31;100.00;99613.94;4961929;28;20022;-87
2022/11/01 04:22:13;;;;;;;49.25;34.15;;;;;;;11.11;100.00;99591.47;4979534;28;20037;-87
2022/11/01 04:24:38;;;;;;;55.13;34.92;;;;;;;11.10;100.00;99593.22;4979050;28;20023;-87
2022/11/01 04:27:04;;;;;;;44.17;33.45;;;;;;;11.07;100.00;99603.81;4994198;28;20369;-87
2022/11/01 04:29:29;;;;;;;55.22;36.13;;;;;;;11.03;100.00;99604.03;4979461;28;20110;-87
2022/11/01 04:31:55;;;;;;;49.47;36.72;;;;;;;10.96;100.00;99601.75;4994340;28;20081;-87
2022/11/01 04:37:04;;;;;;;54.45;37.33;;;;;;;10.96;100.00;99606.13;4979466;28;20521;-86
2022/11/01 04:39:29;;;;;;;54.95;38.58;;;;;;;10.89;100.00;99589.09;4993862;28;20026;-87
2022/11/01 04:41:55;;;;;;;54.20;38.72;;;;;;;10.87;100.00;99594.38;4979173;28;20022;-87
2022/11/01 04:44:20;;;;;;;53.47;38.90;;;;;;;10.82;100.00;99596.34;4978007;28;20070;-86
2022/11/01 04:46:46;;;;;;;59.78;39.60;;;;;;;10.81;100.00;99601.63;4961662;28;20396;-87
2022/11/01 04:49:11;;;;;;;52.78;38.38;;;;;;;10.77;100.00;99592.28;4994164;28;20033;-87
2022/11/01 04:51:39;;;;;;;53.33;37.33;;;;;;;10.73;100.00;99597.63;4993896;28;20121;-88
2022/11/01 04:54:05;;;;;;;46.50;35.85;;;;;;;10.69;100.00;99590.88;4961536;28;20031;-87
2022/11/01 04:56:31;;;;;;;50.97;37.47;;;;;;;10.66;100.00;99587.56;4977696;28;20022;-87
2022/11/01 04:58:56;;;;;;;53.55;37.53;;;;;;;10.63;100.00;99585.97;4978939;28;20085;-87
2022/11/01 05:01:22;;;;;;;52.33;40.28;;;;;;;10.63;100.00;99592.94;4975660;28;20022;-87
2022/11/01 05:03:48;;;;;;;54.45;38.83;;;;;;;10.56;100.00;99587.19;4990707;28;20031;-87
2022/11/01 05:06:13;;;;;;;51.20;37.42;;;;;;;10.59;100.00;99581.81;4958549;28;20370;-87
2022/11/01 05:08:39;;;;;;;58.60;39.80;;;;;;;10.53;100.00;99573.44;4990382;28;20494;-88
2022/11/01 05:11:04;;;;;;;58.00;40.35;;;;;;;10.55;100.00;99582.06;4990996;28;20382;-87
2022/11/01 05:13:30;;;;;;;49.08;38.75;;;;;;;10.49;100.00;99581.44;4973144;28;20030;-87
2022/11/01 05:15:56;;;;;;;56.78;40.22;;;;;;;10.45;100.00;99573.84;4957103;28;20034;-87
2022/11/01 05:18:21;;;;;;;54.30;40.33;;;;;;;10.39;100.00;99569.75;4973362;28;20037;-87
2022/11/01 05:20:47;;;;;;;60.40;41.25;;;;;;;10.41;100.00;99569.69;4956840;28;20501;-90
2022/11/01 05:23:12;;;;;;;58.10;42.63;;;;;;;10.36;100.00;99574.25;4956992;28;20077;-89
2022/11/01 05:25:38;;;;;;;60.50;42.20;;;;;;;10.28;100.00;99571.16;4956682;28;20582;-87
2022/11/01 05:28:06;;;;;;;56.10;41.13;;;;;;;10.22;100.00;99569.66;4956878;28;20042;-86
2022/11/01 05:30:36;;;;;;;58.28;42.03;;;;;;;10.13;100.00;99567.50;4956604;28;20034;-87
2022/11/01 05:33:02;;;;;;;62.58;44.78;;;;;;;10.07;100.00;99566.03;4956798;28;20589;-86
2022/11/01 05:35:28;;;;;;;53.47;39.80;;;;;;;10.07;100.00;99575.56;4956747;28;20114;-87
2022/11/01 05:37:54;;;;;;;57.05;40.45;;;;;;;10.05;100.00;99575.63;4972620;28;20062;-87
2022/11/01 05:40:20;;;;;;;59.60;41.38;;;;;;;10.07;100.00;99583.38;4972884;28;20080;-88
2022/11/01 05:42:46;;;;;;;54.20;38.72;;;;;;;9.98;100.00;99580.25;4956447;28;20561;-87
2022/11/01 05:45:11;;;;;;;49.00;37.08;;;;;;;9.98;100.00;99575.06;4957438;28;20027;-88
2022/11/01 05:47:40;;;;;;;51.47;39.15;;;;;;;9.97;100.00;99589.00;4972364;28;20434;-88
2022/11/01 05:50:10;;;;;;;62.60;39.65;;;;;;;9.86;100.00;99579.97;4956482;28;20035;-88
2022/11/01 05:52:36;;;;;;;54.30;41.20;;;;;;;9.94;100.00;99599.56;4956163;28;20066;-87
2022/11/01 05:55:02;;;;;;;64.20;40.58;;;;;;;9.82;100.00;99579.28;4972644;28;20053;-87
2022/11/01 05:57:27;;;;;;;52.33;38.17;;;;;;;9.88;100.00;99596.38;4972642;28;20039;-89
2022/11/01 05:59:53;;;;;;;53.78;37.88;;;;;;;9.85;100.00;99589.53;4956074;28;20047;-88
2022/11/01 06:02:18;;;;;;;60.10;42.72;;;;;;;9.80;100.00;99593.25;4956411;28;20027;-88
2022/11/01 06:04:44;;;;;;;55.10;40.40;;;;;;;9.67;100.00;99577.34;4956028;28;20037;-88
2022/11/01 06:07:09;;;;;;;58.08;43.08;;;;;;;9.67;100.00;99588.59;4957140;28;20564;-88
2022/11/01 06:09:34;;;;;;;58.08;37.63;;;;;;;9.71;100.00;99597.97;4957109;28;20062;-89
2022/11/01 06:12:00;;;;;;;58.78;40.15;;;;;;;9.72;100.00;99591.84;4956075;28;20031;-89
2022/11/01 06:14:25;;;;;;;52.45;36.67;;;;;;;9.77;100.00;99609.84;4956139;28;20061;-88
2022/11/01 06:16:51;;;;;;;54.45;39.65;;;;;;;9.79;100.00;99602.84;4955748;28;20105;-87
2022/11/01 06:19:17;;;;;;;54.58;37.63;;;;;;;9.90;100.00;99610.16;4955864;28;20043;-89
2022/11/01 06:21:42;;;;;;;52.13;37.38;;;;;;;10.02;100.00;99621.75;4955524;28;20030;-89
2022/11/01 06:24:10;;;;;;;57.00;37.10;;;;;;;10.13;100.00;99620.38;4956117;28;20101;-88
2022/11/01 06:26:36;;;;;;;56.05;39.00;;;;;;;10.19;100.00;99617.47;4956865;28;20038;-88
2022/11/01 06:29:02;;;;;;;66.30;48.67;;;;;;;10.27;100.00;99611.97;4957046;28;20027;-88
2022/11/01 06:31:27;;;;;;;50.95;36.88;;;;;;;10.45;100.00;99631.13;4956933;28;20034;-89
2022/11/01 06:33:53;;;;;;;44.30;33.97;;;;;;;10.45;100.00;99636.34;4956695;28;20356;-89
2022/11/01 06:36:19;;;;;;;48.22;35.17;;;;;;;10.56;100.00;99644.47;4989005;28;20490;-88
2022/11/01 06:38:44;;;;;;;48.55;35.60;;;;;;;10.60;100.00;99648.63;4973961;28;20066;-89
2022/11/01 06:41:10;;;;;;;50.50;34.50;;;;;;;10.60;100.00;99645.19;4956959;28;20074;-88
2022/11/01 06:43:35;;;;;;;44.53;34.90;;;;;;;10.53;100.00;99644.59;4974368;28;20035;-88
2022/11/01 06:46:01;;;;;;;43.28;32.28;;;;;;;10.68;100.00;99667.34;4972522;28;20026;-88
2022/11/01 06:48:27;;;;;;;48.28;32.97;;;;;;;10.96;100.00;99663.44;4988879;28;20405;-89
2022/11/01 06:50:54;;;;;;;47.83;34.17;;;;;;;11.07;100.00;99655.94;4988596;28;20110;-89
2022/11/01 06:53:22;;;;;;;44.15;31.95;;;;;;;11.10;100.00;99665.38;4989052;28;20062;-89
2022/11/01 06:55:47;;;;;;;45.22;33.03;;;;;;;11.10;100.00;99667.97;4988637;28;20034;-89
2022/11/01 06:58:12;;;;;;;39.55;30.85;;;;;;;11.32;100.00;99655.56;4988668;28;20026;-88
2022/11/01 07:00:38;;;;;;;46.35;32.63;;;;;;;11.61;100.00;99646.28;4988496;28;20031;-90
2022/11/01 07:03:05;;;;;;;45.13;33.10;;;;;;;11.76;100.00;99630.78;4956424;28;20602;-88
2022/11/01 07:05:33;;;;;;;47.83;32.42;;;;;;;11.82;100.00;99625.25;4973562;28;20050;-89
2022/11/01 07:07:59;;;;;;;47.20;33.17;;;;;;;12.03;100.00;99637.19;4956088;28;20035;-89
2022/11/01 07:10:25;;;;;;;47.20;32.35;;;;;;;12.10;100.00;99649.00;4988794;28;20015;-89
2022/11/01 07:12:55;;;;;;;41.33;31.42;;;;;;;12.10;100.00;99663.84;4988399;28;20109;-89
2022/11/01 07:15:20;;;;;;;40.47;29.73;;;;;;;12.20;100.00;99660.66;4956410;28;20518;-89
2022/11/01 07:17:46;;;;;;;41.80;31.90;;;;;;;12.40;100.00;99669.19;4988220;28;20268;-89
2022/11/01 07:20:12;;;;;;;41.38;30.52;;;;;;;12.56;100.00;99674.44;4988315;28;20041;-90
2022/11/01 07:22:37;;;;;;;40.92;29.70;;;;;;;12.84;100.00;99677.19;4988363;28;20101;-89
2022/11/01 07:25:04;;;;;;;39.90;28.38;;;;;;;13.09;100.00;99681.06;4987647;28;20018;-89
2022/11/01 07:27:29;;;;;;;41.83;28.33;;;;;;;13.25;100.00;99668.84;4956022;28;20574;-89
2022/11/01 07:29:54;;;;;;;37.20;27.92;;;;;;;13.44;100.00;99684.31;4973420;28;20026;-89
2022/11/01 07:32:20;;;;;;;40.42;26.58;;;;;;;13.67;99.73;99677.75;4988115;28;20025;-88
2022/11/01 07:34:45;;;;;;;35.80;26.48;;;;;;;13.82;98.78;99668.13;4955741;28;20039;-88
2022/11/01 07:37:11;;;;;;;30.10;25.30;;;;;;;13.80;96.46;99657.75;4973442;28;20022;-88
2022/11/01 07:39:36;;;;;;;37.38;24.88;;;;;;;13.80;96.00;99641.22;4970608;28;20043;-89
2022/11/01 07:42:02;;;;;;;35.72;24.50;;;;;;;13.77;96.01;99630.91;4970474;28;20522;-89
2022/11/01 07:44:27;;;;;;;31.73;24.33;;;;;;;13.43;95.44;99609.38;4970575;28;20039;-88
2022/11/01 07:46:52;;;;;;;38.22;25.15;;;;;;;13.66;96.60;99621.94;4970483;28;20046;-90
2022/11/01 07:49:18;;;;;;;34.45;24.85;;;;;;;13.84;96.51;99621.78;4970631;28;20438;-89
2022/11/01 07:51:43;;;;;;;29.83;22.35;;;;;;;14.05;96.75;99628.31;4970411;28;20026;-88
2022/11/01 07:54:10;;;;;;;31.35;23.08;;;;;;;14.06;94.37;99634.41;4970464;28;20045;-88
2022/11/01 07:56:35;;;;;;;32.88;23.25;;;;;;;14.02;93.77;99638.13;4986810;28;20069;-90
2022/11/01 07:59:00;;;;;;;29.60;22.08;;;;;;;14.04;93.78;99641.53;4970418;28;20465;-90
2022/11/01 08:02:01;;;;;;;30.77;21.58;;;;;;;14.00;94.48;99638.25;4955060;28;20023;-92
2022/11/01 08:04:26;;;;;;;29.67;20.92;;;;;;;14.02;94.75;99633.75;4954374;28;20391;-90
2022/11/01 08:06:52;;;;;;;26.15;19.55;;;;;;;13.93;95.03;99650.84;4970407;28;20035;-92
2022/11/01 08:13:01;;;;;;;25.42;18.20;;;;;;;14.11;95.66;99646.25;4951737;29;20046;-93
2022/11/01 08:15:26;;;;;;;25.05;18.75;;;;;;;14.30;94.14;99638.13;4919225;28;20426;-91
2022/11/01 08:17:55;;;;;;;22.98;17.15;;;;;;;14.56;93.05;99646.16;4935048;29;20023;-92
2022/11/01 08:20:41;;;;;;;22.95;17.52;;;;;;;14.75;91.74;99638.84;4935331;29;20471;-93
2022/11/01 08:29:50;;;;;;;22.92;16.63;;;;;;;14.91;90.78;99647.38;4914035;29;20111;-90
2022/11/01 08:32:20;;;;;;;25.75;17.15;;;;;;;14.97;90.64;99648.78;4913208;29;20047;-87
2022/11/01 08:34:46;;;;;;;23.60;17.50;;;;;;;14.97;90.36;99641.75;4918738;29;20028;-88
2022/11/01 08:37:11;;;;;;;19.65;16.70;;;;;;;14.92;89.94;99643.84;4935043;29;20494;-88
2022/11/01 08:39:37;;;;;;;22.30;17.42;;;;;;;14.92;90.18;99662.19;4919669;29;20034;-87
2022/11/01 08:42:04;;;;;;;23.23;17.92;;;;;;;14.82;90.47;99641.88;4970115;28;20121;-87
2022/11/01 08:44:30;;;;;;;24.98;18.90;;;;;;;14.87;90.70;99652.91;4973618;28;20418;-88
2022/11/01 08:46:59;;;;;;;27.55;19.23;;;;;;;14.77;90.52;99654.44;4957902;28;20055;-87
2022/11/01 08:49:25;;;;;;;26.63;18.63;;;;;;;14.56;90.63;99643.56;4957385;28;20034;-87
2022/11/01 08:51:50;;;;;;;25.40;19.38;;;;;;;14.40;91.11;99644.47;4973859;28;20530;-88
2022/11/01 08:54:16;;;;;;;28.20;18.92;;;;;;;14.29;92.11;99640.84;4966056;28;20041;-89
2022/11/01 08:56:43;;;;;;;30.15;19.13;;;;;;;14.06;92.67;99623.91;4974952;28;20039;-88
2022/11/01 08:59:09;;;;;;;26.02;20.50;;;;;;;14.01;93.42;99650.38;4990855;28;20022;-88
2022/11/01 09:01:34;;;;;;;27.50;19.33;;;;;;;14.03;93.67;99651.16;4976147;28;20489;-88
2022/11/01 09:04:00;;;;;;;28.05;21.83;;;;;;;14.01;94.36;99655.63;4974570;28;20023;-90
2022/11/01 09:06:27;;;;;;;29.33;21.48;;;;;;;13.93;94.68;99656.09;4974664;28;20034;-89
2022/11/01 09:08:54;;;;;;;27.55;22.20;;;;;;;13.94;94.96;99656.94;4966210;28;20093;-91
2022/11/01 09:11:21;;;;;;;30.50;22.67;;;;;;;13.90;95.71;99647.56;4958297;28;20046;-89
2022/11/01 09:13:47;;;;;;;33.33;24.20;;;;;;;13.92;95.79;99636.09;4958157;28;20031;-92
2022/11/01 09:16:12;;;;;;;33.72;24.23;;;;;;;13.87;96.06;99655.63;4958331;28;20018;-90
2022/11/01 09:18:38;;;;;;;36.20;26.58;;;;;;;13.79;96.62;99658.69;4958293;28;20109;-87
2022/11/01 09:21:04;;;;;;;33.30;24.30;;;;;;;13.80;96.86;99641.22;4958232;28;20061;-87
2022/11/01 09:23:29;;;;;;;32.65;24.27;;;;;;;13.85;96.85;99653.09;4973894;28;20101;-85
2022/11/01 09:26:06;;;;;;;30.85;25.20;;;;;;;13.92;97.15;99651.78;4957835;28;20129;-86
2022/11/01 09:28:32;;;;;;;35.88;26.25;;;;;;;14.02;97.13;99644.22;4933869;29;20422;-87
2022/11/01 09:31:04;;;;;;;34.13;25.52;;;;;;;14.23;96.59;99649.91;4934010;29;20075;-87
2022/11/01 09:33:31;;;;;;;32.85;24.48;;;;;;;14.45;96.04;99665.13;4934416;29;20035;-88
2022/11/01 09:35:57;;;;;;;33.40;24.73;;;;;;;14.53;95.33;99668.16;4934071;29;20032;-84
2022/11/01 09:38:22;;;;;;;31.77;25.35;;;;;;;14.60;94.75;99653.75;4934248;29;20415;-83
2022/11/01 09:41:03;;;;;;;32.80;25.95;;;;;;;14.72;94.22;99663.44;4933942;29;20476;-84
2022/11/01 09:43:33;;;;;;;35.28;26.52;;;;;;;14.68;93.59;99675.06;4933966;29;20067;-85
2022/11/01 09:46:03;;;;;;;32.87;26.40;;;;;;;14.53;93.41;99662.06;4932424;29;20031;-83
2022/11/01 09:48:32;;;;;;;34.95;26.67;;;;;;;14.46;93.79;99683.41;4930567;29;20267;-84
2022/11/01 09:51:02;;;;;;;41.78;29.15;;;;;;;14.31;93.79;99673.88;4934202;29;20087;-84
2022/11/01 09:53:28;;;;;;;42.75;30.10;;;;;;;14.44;93.98;99690.50;4933683;29;20063;-89
2022/11/01 09:56:08;;;;;;;41.55;29.48;;;;;;;14.41;93.58;99688.09;4933615;29;20504;-90
2022/11/01 09:59:05;;;;;;;44.63;33.08;;;;;;;14.18;93.68;99671.16;4936688;28;20535;-86
2022/11/01 10:02:08;;;;;;;42.47;32.70;;;;;;;14.10;94.17;99683.88;4957808;28;20031;-96
2022/11/01 10:04:49;;;;;;;59.40;33.10;;;;;;;13.97;94.97;99683.78;4957016;28;20485;-86
2022/11/01 10:07:33;;;;;;;39.97;30.58;;;;;;;13.96;95.49;99694.34;4956925;28;20105;-85
2022/11/01 10:10:10;;;;;;;42.92;29.80;;;;;;;13.94;95.68;99698.81;4974065;28;20536;-87
2022/11/01 10:12:58;;;;;;;38.70;28.83;;;;;;;13.90;96.05;99708.63;4974468;28;20051;-85
2022/11/01 10:15:38;;;;;;;40.58;29.33;;;;;;;13.87;96.33;99710.59;4974353;28;20034;-87
2022/11/01 10:18:44;;;;;;;36.70;28.52;;;;;;;13.87;96.42;99713.22;4956908;28;20470;-84
2022/11/01 10:21:15;;;;;;;34.60;27.63;;;;;;;13.93;96.61;99707.63;4913946;29;20032;-86
2022/11/01 10:23:47;;;;;;;36.28;28.90;;;;;;;13.95;96.10;99693.50;4914070;29;20040;-88
2022/11/01 10:26:19;;;;;;;36.47;30.70;;;;;;;14.11;95.79;99711.75;4913763;29;20506;-87
2022/11/01 10:28:59;;;;;;;35.72;29.52;;;;;;;14.15;95.75;99701.94;4914015;29;20063;-87
2022/11/01 10:31:27;;;;;;;39.60;31.48;;;;;;;14.19;95.83;99716.53;4898065;29;20414;-90
2022/11/01 10:34:01;;;;;;;38.85;31.33;;;;;;;14.16;95.63;99716.72;4898000;29;20048;-87
2022/11/01 10:36:33;;;;;;;41.45;32.03;;;;;;;14.10;95.46;99698.75;4898294;29;20039;-90
2022/11/01 10:39:01;;;;;;;41.53;31.40;;;;;;;14.17;95.58;99713.16;4897869;29;20059;-87
2022/11/01 10:41:40;;;;;;;41.55;33.55;;;;;;;14.30;95.40;99727.19;4897933;29;20024;-86
2022/11/01 10:44:14;;;;;;;39.05;32.58;;;;;;;14.35;95.20;99727.75;4897425;29;20068;-87
2022/11/01 10:46:44;;;;;;;44.33;33.78;;;;;;;14.41;95.26;99727.41;4898030;29;20069;-87
2022/11/01 10:49:26;;;;;;;42.80;32.72;;;;;;;14.50;95.05;99712.09;4897726;29;20032;-87
2022/11/01 10:52:00;;;;;;;47.40;32.90;;;;;;;14.61;94.68;99717.47;4897687;29;20036;-88
2022/11/01 10:54:29;;;;;;;40.80;31.10;;;;;;;14.71;94.83;99726.47;4897647;29;20137;-88
2022/11/01 10:57:01;;;;;;;39.78;31.38;;;;;;;14.68;94.72;99711.78;4897436;29;20031;-88
2022/11/01 10:59:42;;;;;;;37.42;31.23;;;;;;;14.80;94.42;99722.44;4941413;28;20066;-88
2022/11/01 11:02:22;;;;;;;37.45;29.95;;;;;;;14.79;94.64;99718.09;4955288;28;20486;-87
2022/11/01 11:04:48;;;;;;;38.08;29.60;;;;;;;14.84;94.64;99718.69;4956033;28;20158;-92
2022/11/01 11:07:16;;;;;;;35.05;28.85;;;;;;;14.84;94.62;99721.31;4950748;28;20031;-88
2022/11/01 11:09:41;;;;;;;35.00;27.48;;;;;;;14.79;94.61;99713.72;4955919;28;20117;-88
2022/11/01 11:12:14;;;;;;;32.45;25.75;;;;;;;14.78;94.93;99714.66;4955834;28;20325;-96
2022/11/01 11:14:41;;;;;;;29.63;25.75;;;;;;;14.75;94.76;99717.47;4956301;28;20390;-90
2022/11/01 11:17:33;;;;;;;29.90;25.23;;;;;;;14.65;94.87;99711.94;4955732;28;20030;-88
2022/11/01 11:20:06;;;;;;;31.52;24.25;;;;;;;14.75;95.14;99721.84;4955891;28;20014;-91
2022/11/01 11:22:38;;;;;;;29.00;21.13;;;;;;;14.73;95.26;99721.97;4955907;28;20027;-88
2022/11/01 11:25:05;;;;;;;25.10;21.30;;;;;;;14.73;95.06;99729.84;4955538;28;20058;-89
2022/11/01 11:27:32;;;;;;;26.55;21.08;;;;;;;14.73;95.05;99721.97;4955696;28;20375;-88
2022/11/01 11:30:31;;;;;;;22.33;19.00;;;;;;;14.78;95.31;99730.38;4972945;28;20490;-92
2022/11/01 11:32:58;;;;;;;24.30;19.25;;;;;;;14.79;95.09;99726.84;4951087;29;20103;-92
2022/11/01 11:35:27;;;;;;;20.83;17.42;;;;;;;14.78;95.06;99716.44;4935927;29;20038;-86
2022/11/01 11:38:02;;;;;;;24.48;17.95;;;;;;;14.87;94.96;99732.41;4951500;29;20054;-88
2022/11/01 11:40:48;;;;;;;18.58;15.52;;;;;;;14.92;94.48;99735.63;4936990;28;20386;-89
2022/11/01 11:43:35;;;;;;;20.67;16.23;;;;;;;14.88;94.62;99723.63;4934695;29;20035;-87